createdAt,value
2018-12-17T00:00:04.253Z,848.59
2018-12-17T00:01:04.236Z,848.62
2018-12-17T00:02:04.252Z,848.65
2018-12-17T00:03:04.249Z,848.67
2018-12-17T00:04:04.206Z,848.67
2018-12-17T00:05:04.202Z,848.70
2018-12-17T00:06:04.178Z,848.71
2018-12-17T00:07:04.196Z,848.72
2018-12-17T00:08:04.210Z,848.71
2018-12-17T00:09:04.158Z,848.67
2018-12-17T00:10:04.147Z,848.67
2018-12-17T00:11:04.149Z,848.64
2018-12-17T00:12:04.111Z,848.64
2018-12-17T00:13:04.114Z,848.65
2018-12-17T00:14:04.130Z,848.64
2018-12-17T00:15:04.111Z,848.63
2018-12-17T00:16:04.082Z,848.65
2018-12-17T00:17:05.215Z,848.60
2018-12-17T00:18:04.059Z,848.63
2018-12-17T00:19:04.055Z,848.69
2018-12-17T00:20:04.085Z,848.67
2018-12-17T00:21:04.041Z,848.67
2018-12-17T00:22:04.023Z,848.64
2018-12-17T00:23:03.995Z,848.67
2018-12-17T00:24:04.013Z,848.68
2018-12-17T00:25:03.980Z,848.64
2018-12-17T00:26:04.018Z,848.65
2018-12-17T00:27:03.969Z,848.63
2018-12-17T00:28:08.191Z,848.65
2018-12-17T00:29:03.935Z,848.65
2018-12-17T00:30:03.924Z,848.68
2018-12-17T00:31:03.979Z,848.68
2018-12-17T00:32:03.958Z,848.70
2018-12-17T00:33:03.937Z,848.70
2018-12-17T00:34:03.884Z,848.74
2018-12-17T00:35:03.884Z,848.76
2018-12-17T00:36:03.867Z,848.80
2018-12-17T00:37:03.861Z,848.79
2018-12-17T00:38:03.888Z,848.84
2018-12-17T00:39:03.843Z,848.83
2018-12-17T00:40:03.816Z,848.86
2018-12-17T00:41:03.818Z,848.89
2018-12-17T00:42:03.826Z,848.94
2018-12-17T00:43:03.826Z,848.90
2018-12-17T00:44:03.771Z,848.92
2018-12-17T00:45:03.841Z,848.88
2018-12-17T00:46:03.753Z,848.89
2018-12-17T00:47:03.761Z,848.93
2018-12-17T00:48:03.729Z,848.94
2018-12-17T00:49:03.722Z,848.92
2018-12-17T00:50:03.747Z,848.94
2018-12-17T00:51:03.773Z,848.95
2018-12-17T00:52:03.687Z,848.96
2018-12-17T00:53:03.691Z,848.96
2018-12-17T00:54:03.673Z,848.96
2018-12-17T00:55:03.673Z,848.98
2018-12-17T00:56:03.662Z,849.04
2018-12-17T00:57:03.691Z,849.02
2018-12-17T00:58:03.631Z,849.00
2018-12-17T00:59:03.681Z,849.01
2018-12-17T01:00:03.629Z,848.99
2018-12-17T01:01:03.604Z,849.04
2018-12-17T01:02:03.649Z,849.06
2018-12-17T01:03:03.626Z,849.05
2018-12-17T01:04:03.562Z,849.09
2018-12-17T01:05:03.557Z,849.06
2018-12-17T01:06:03.545Z,849.08
2018-12-17T01:07:03.546Z,849.10
2018-12-17T01:08:03.538Z,849.11
2018-12-17T01:09:03.556Z,849.15
2018-12-17T01:10:03.513Z,849.13
2018-12-17T01:11:03.568Z,849.09
2018-12-17T01:12:03.486Z,849.08
2018-12-17T01:13:03.476Z,849.08
2018-12-17T01:14:03.507Z,849.07
2018-12-17T01:15:03.476Z,849.10
2018-12-17T01:16:03.448Z,849.14
2018-12-17T01:17:03.441Z,849.16
2018-12-17T01:18:03.413Z,849.10
2018-12-17T01:19:03.414Z,849.12
2018-12-17T01:20:03.507Z,849.15
2018-12-17T01:21:03.406Z,849.17
2018-12-17T01:22:03.398Z,849.16
2018-12-17T01:23:03.366Z,849.21
2018-12-17T01:24:03.350Z,849.21
2018-12-17T01:25:03.385Z,849.20
2018-12-17T01:26:03.340Z,849.22
2018-12-17T01:27:03.343Z,849.21
2018-12-17T01:28:03.369Z,849.21
2018-12-17T01:29:03.310Z,849.23
2018-12-17T01:30:03.304Z,849.22
2018-12-17T01:31:03.383Z,849.21
2018-12-17T01:32:03.293Z,849.19
2018-12-17T01:33:03.255Z,849.18
2018-12-17T01:34:03.245Z,849.21
2018-12-17T01:35:03.259Z,849.21
2018-12-17T01:36:03.226Z,849.25
2018-12-17T01:37:03.270Z,849.18
2018-12-17T01:38:03.212Z,849.25
2018-12-17T01:39:03.192Z,849.21
2018-12-17T01:40:03.236Z,849.19
2018-12-17T01:41:03.193Z,849.25
2018-12-17T01:42:03.163Z,849.24
2018-12-17T01:43:03.218Z,849.26
2018-12-17T01:44:03.150Z,849.26
2018-12-17T01:45:03.129Z,849.30
2018-12-17T01:46:03.164Z,849.31
2018-12-17T01:47:03.117Z,849.27
2018-12-17T01:48:03.128Z,849.36
2018-12-17T01:49:03.098Z,849.34
2018-12-17T01:50:03.112Z,849.35
2018-12-17T01:51:03.098Z,849.34
2018-12-17T01:52:03.050Z,849.41
2018-12-17T01:53:03.089Z,849.40
2018-12-17T01:54:03.048Z,849.36
2018-12-17T01:55:03.025Z,849.37
2018-12-17T01:56:03.086Z,849.37
2018-12-17T01:57:03.014Z,849.39
2018-12-17T01:58:03.050Z,849.38
2018-12-17T01:59:02.980Z,849.36
2018-12-17T02:00:03.007Z,849.36
2018-12-17T02:01:02.987Z,849.33
2018-12-17T02:02:03.009Z,849.31
2018-12-17T02:03:02.938Z,849.38
2018-12-17T02:04:02.939Z,849.32
2018-12-17T02:05:02.919Z,849.32
2018-12-17T02:06:02.972Z,849.34
2018-12-17T02:07:02.896Z,849.31
2018-12-17T02:08:02.948Z,849.37
2018-12-17T02:09:02.951Z,849.33
2018-12-17T02:10:02.874Z,849.37
2018-12-17T02:11:02.853Z,849.35
2018-12-17T02:12:02.863Z,849.33
2018-12-17T02:13:02.836Z,849.36
2018-12-17T02:14:02.864Z,849.35
2018-12-17T02:15:02.821Z,849.34
2018-12-17T02:16:02.821Z,849.38
2018-12-17T02:17:02.826Z,849.37
2018-12-17T02:18:02.791Z,849.38
2018-12-17T02:19:02.776Z,849.41
2018-12-17T02:20:02.810Z,849.42
2018-12-17T02:21:02.745Z,849.35
2018-12-17T02:22:02.749Z,849.37
2018-12-17T02:23:02.734Z,849.38
2018-12-17T02:24:02.743Z,849.36
2018-12-17T02:25:02.715Z,849.41
2018-12-17T02:26:02.751Z,849.36
2018-12-17T02:27:02.737Z,849.38
2018-12-17T02:28:02.706Z,849.38
2018-12-17T02:29:02.680Z,849.41
2018-12-17T02:30:02.703Z,849.39
2018-12-17T02:31:02.655Z,849.41
2018-12-17T02:32:02.702Z,849.38
2018-12-17T02:33:02.624Z,849.41
2018-12-17T02:34:02.617Z,849.43
2018-12-17T02:35:02.601Z,849.41
2018-12-17T02:36:02.591Z,849.42
2018-12-17T02:37:02.600Z,849.44
2018-12-17T02:38:02.629Z,849.45
2018-12-17T02:39:02.558Z,849.43
2018-12-17T02:40:02.556Z,849.44
2018-12-17T02:41:02.543Z,849.43
2018-12-17T02:42:02.541Z,849.44
2018-12-17T02:43:02.549Z,849.49
2018-12-17T02:44:02.578Z,849.53
2018-12-17T02:45:02.535Z,849.49
2018-12-17T02:46:02.505Z,849.53
2018-12-17T02:47:02.483Z,849.59
2018-12-17T02:48:02.481Z,849.54
2018-12-17T02:49:02.470Z,849.56
2018-12-17T02:50:02.482Z,849.56
2018-12-17T02:51:02.438Z,849.57
2018-12-17T02:52:02.430Z,849.57
2018-12-17T02:53:02.438Z,849.59
2018-12-17T02:54:02.395Z,849.58
2018-12-17T02:55:02.524Z,849.56
2018-12-17T02:56:02.449Z,849.60
2018-12-17T02:57:02.379Z,849.60
2018-12-17T02:58:02.358Z,849.62
2018-12-17T02:59:02.345Z,849.62
2018-12-17T03:00:02.362Z,849.61
2018-12-17T03:01:02.379Z,849.60
2018-12-17T03:02:02.336Z,849.64
2018-12-17T03:03:02.300Z,849.65
2018-12-17T03:04:02.289Z,849.66
2018-12-17T03:05:02.306Z,849.72
2018-12-17T03:06:02.275Z,849.73
2018-12-17T03:07:02.295Z,849.69
2018-12-17T03:08:02.266Z,849.71
2018-12-17T03:09:02.246Z,849.71
2018-12-17T03:10:02.245Z,849.68
2018-12-17T03:11:02.262Z,849.74
2018-12-17T03:12:02.221Z,849.70
2018-12-17T03:13:02.206Z,849.74
2018-12-17T03:14:02.216Z,849.78
2018-12-17T03:15:02.210Z,849.84
2018-12-17T03:16:02.178Z,849.79
2018-12-17T03:17:02.227Z,849.79
2018-12-17T03:18:02.171Z,849.79
2018-12-17T03:19:02.158Z,849.81
2018-12-17T03:20:02.173Z,849.81
2018-12-17T03:21:02.113Z,849.85
2018-12-17T03:22:02.114Z,849.82
2018-12-17T03:23:02.151Z,849.82
2018-12-17T03:24:02.095Z,849.88
2018-12-17T03:25:02.095Z,849.79
2018-12-17T03:26:02.070Z,849.83
2018-12-17T03:27:02.080Z,849.82
2018-12-17T03:28:02.056Z,849.81
2018-12-17T03:29:02.129Z,849.84
2018-12-17T03:30:02.035Z,849.84
2018-12-17T03:31:02.018Z,849.87
2018-12-17T03:32:02.015Z,849.87
2018-12-17T03:33:02.009Z,849.88
2018-12-17T03:34:01.978Z,849.87
2018-12-17T03:35:02.018Z,849.85
2018-12-17T03:36:01.970Z,849.86
2018-12-17T03:37:01.997Z,849.82
2018-12-17T03:38:01.941Z,849.82
2018-12-17T03:39:01.944Z,849.85
2018-12-17T03:40:01.948Z,849.82
2018-12-17T03:41:01.903Z,849.83
2018-12-17T03:42:01.943Z,849.86
2018-12-17T03:43:01.887Z,849.80
2018-12-17T03:44:01.885Z,849.84
2018-12-17T03:45:01.872Z,849.84
2018-12-17T03:46:01.848Z,849.80
2018-12-17T03:47:01.837Z,849.84
2018-12-17T03:48:01.869Z,849.87
2018-12-17T03:49:01.826Z,849.84
2018-12-17T03:50:01.816Z,849.82
2018-12-17T03:51:01.803Z,849.83
2018-12-17T03:52:01.829Z,849.84
2018-12-17T03:53:01.781Z,849.82
2018-12-17T03:54:01.787Z,849.81
2018-12-17T03:55:01.997Z,849.85
2018-12-17T03:56:01.752Z,849.80
2018-12-17T03:57:31.052Z,849.80
2018-12-17T03:58:02.727Z,849.79
2018-12-17T03:59:01.710Z,849.81
2018-12-17T04:00:01.703Z,849.78
2018-12-17T04:01:01.702Z,849.81
2018-12-17T04:02:01.728Z,849.80
2018-12-17T04:03:01.670Z,849.86
2018-12-17T04:04:01.655Z,849.80
2018-12-17T04:05:01.663Z,849.81
2018-12-17T04:06:01.639Z,849.80
2018-12-17T04:07:01.713Z,849.81
2018-12-17T04:08:01.637Z,849.81
2018-12-17T04:09:01.616Z,849.81
2018-12-17T04:10:01.610Z,849.87
2018-12-17T04:11:01.591Z,849.83
2018-12-17T04:12:01.583Z,849.83
2018-12-17T04:13:01.617Z,849.82
2018-12-17T04:14:01.560Z,849.85
2018-12-17T04:15:01.546Z,849.80
2018-12-17T04:16:01.541Z,849.86
2018-12-17T04:17:01.529Z,849.88
2018-12-17T04:18:01.526Z,849.86
2018-12-17T04:19:01.561Z,849.89
2018-12-17T04:20:01.488Z,849.90
2018-12-17T04:21:01.505Z,849.89
2018-12-17T04:22:01.474Z,849.95
2018-12-17T04:23:01.477Z,849.94
2018-12-17T04:24:01.451Z,849.96
2018-12-17T04:25:01.509Z,849.93
2018-12-17T04:26:01.429Z,849.98
2018-12-17T04:27:01.429Z,849.98
2018-12-17T04:28:01.416Z,849.98
2018-12-17T04:29:06.773Z,850.00
2018-12-17T04:30:02.438Z,850.00
2018-12-17T04:31:01.371Z,849.98
2018-12-17T04:32:01.421Z,850.02
2018-12-17T04:33:01.373Z,850.01
2018-12-17T04:34:01.353Z,850.03
2018-12-17T04:35:01.344Z,850.05
2018-12-17T04:36:01.317Z,850.06
2018-12-17T04:37:01.337Z,850.07
2018-12-17T04:38:01.362Z,850.07
2018-12-17T04:39:01.323Z,850.05
2018-12-17T04:40:01.297Z,850.04
2018-12-17T04:41:01.274Z,850.06
2018-12-17T04:42:01.270Z,850.03
2018-12-17T04:43:04.679Z,850.05
2018-12-17T04:44:01.230Z,850.06
2018-12-17T04:45:01.261Z,850.00
2018-12-17T04:46:01.212Z,850.07
2018-12-17T04:47:01.190Z,850.09
2018-12-17T04:48:01.201Z,850.09
2018-12-17T04:49:01.191Z,850.11
2018-12-17T04:50:01.213Z,850.11
2018-12-17T04:51:01.166Z,850.10
2018-12-17T04:52:01.147Z,850.09
2018-12-17T04:53:01.147Z,850.09
2018-12-17T04:54:01.141Z,850.08
2018-12-17T04:55:01.125Z,850.09
2018-12-17T04:56:01.160Z,850.07
2018-12-17T04:57:01.093Z,850.10
2018-12-17T04:58:01.085Z,850.14
2018-12-17T04:59:01.099Z,850.15
2018-12-17T05:00:01.112Z,850.15
2018-12-17T05:01:01.058Z,850.17
2018-12-17T05:02:01.104Z,850.20
2018-12-17T05:03:01.069Z,850.23
2018-12-17T05:04:01.036Z,850.20
2018-12-17T05:05:01.004Z,850.22
2018-12-17T05:06:01.095Z,850.28
2018-12-17T05:07:01.046Z,850.22
2018-12-17T05:08:00.998Z,850.25
2018-12-17T05:09:00.964Z,850.26
2018-12-17T05:10:00.951Z,850.28
2018-12-17T05:11:00.942Z,850.32
2018-12-17T05:12:00.991Z,850.34
2018-12-17T05:13:00.979Z,850.28
2018-12-17T05:14:00.915Z,850.33
2018-12-17T05:15:00.949Z,850.31
2018-12-17T05:16:00.905Z,850.32
2018-12-17T05:17:00.883Z,850.40
2018-12-17T05:18:00.891Z,850.35
2018-12-17T05:19:00.870Z,850.38
2018-12-17T05:20:00.850Z,850.37
2018-12-17T05:21:00.902Z,850.35
2018-12-17T05:22:00.855Z,850.36
2018-12-17T05:23:00.822Z,850.42
2018-12-17T05:24:00.834Z,850.45
2018-12-17T05:25:00.816Z,850.48
2018-12-17T05:26:00.832Z,850.44
2018-12-17T05:27:00.797Z,850.44
2018-12-17T05:28:00.763Z,850.49
2018-12-17T05:29:00.757Z,850.49
2018-12-17T05:30:01.344Z,850.41
2018-12-17T05:31:00.744Z,850.50
2018-12-17T05:32:00.761Z,850.49
2018-12-17T05:33:00.756Z,850.50
2018-12-17T05:34:00.701Z,850.48
2018-12-17T05:35:00.700Z,850.54
2018-12-17T05:36:00.736Z,850.56
2018-12-17T05:37:00.686Z,850.55
2018-12-17T05:38:00.666Z,850.56
2018-12-17T05:39:00.659Z,850.58
2018-12-17T05:40:00.635Z,850.62
2018-12-17T05:41:00.625Z,850.65
2018-12-17T05:42:00.693Z,850.65
2018-12-17T05:43:00.617Z,850.68
2018-12-17T05:44:00.590Z,850.68
2018-12-17T05:45:00.584Z,850.71
2018-12-17T05:46:00.572Z,850.74
2018-12-17T05:47:00.557Z,850.74
2018-12-17T05:48:00.605Z,850.80
2018-12-17T05:49:00.549Z,850.81
2018-12-17T05:50:00.593Z,850.85
2018-12-17T05:51:00.525Z,850.89
2018-12-17T05:52:00.519Z,850.90
2018-12-17T05:53:00.549Z,850.91
2018-12-17T05:54:00.521Z,850.93
2018-12-17T05:55:00.478Z,850.97
2018-12-17T05:56:00.477Z,850.98
2018-12-17T05:57:00.454Z,850.99
2018-12-17T05:58:00.491Z,851.01
2018-12-17T05:59:00.434Z,851.01
2018-12-17T06:00:00.423Z,850.99
2018-12-17T06:01:00.412Z,850.99
2018-12-17T06:02:00.427Z,851.03
2018-12-17T06:03:00.430Z,851.10
2018-12-17T06:04:00.423Z,851.07
2018-12-17T06:05:00.385Z,851.10
2018-12-17T06:06:00.370Z,851.15
2018-12-17T06:07:00.351Z,851.13
2018-12-17T06:08:00.392Z,851.19
2018-12-17T06:09:00.340Z,851.15
2018-12-17T06:10:00.321Z,851.20
2018-12-17T06:11:00.305Z,851.19
2018-12-17T06:12:00.291Z,851.20
2018-12-17T06:13:00.344Z,851.22
2018-12-17T06:14:00.321Z,851.17
2018-12-17T06:15:00.263Z,851.19
2018-12-17T06:16:00.254Z,851.27
2018-12-17T06:17:00.243Z,851.24
2018-12-17T06:18:00.231Z,851.23
2018-12-17T06:19:00.282Z,851.24
2018-12-17T06:20:00.221Z,851.26
2018-12-17T06:21:00.215Z,851.30
2018-12-17T06:22:00.183Z,851.32
2018-12-17T06:23:00.178Z,851.38
2018-12-17T06:24:00.168Z,851.44
2018-12-17T06:25:00.211Z,851.42
2018-12-17T06:26:00.168Z,851.38
2018-12-17T06:27:00.135Z,851.38
2018-12-17T06:28:00.131Z,851.47
2018-12-17T06:29:00.112Z,851.40
2018-12-17T06:30:00.109Z,851.46
2018-12-17T06:31:00.143Z,851.45
2018-12-17T06:32:00.098Z,851.49
2018-12-17T06:33:00.077Z,851.49
2018-12-17T06:34:00.063Z,851.54
2018-12-17T06:35:00.047Z,851.55
2018-12-17T06:36:00.052Z,851.48
2018-12-17T06:37:00.063Z,851.58
2018-12-17T06:38:00.079Z,851.57
2018-12-17T06:39:00.005Z,851.67
2018-12-17T06:40:00.000Z,851.75
2018-12-17T06:40:59.984Z,851.70
2018-12-17T06:41:59.999Z,851.73
2018-12-17T06:42:59.984Z,851.77
2018-12-17T06:43:59.997Z,851.68
2018-12-17T06:44:59.951Z,851.72
2018-12-17T06:45:59.934Z,851.79
2018-12-17T06:46:59.925Z,851.80
2018-12-17T06:47:59.932Z,851.85
2018-12-17T06:48:59.942Z,851.87
2018-12-17T06:49:59.900Z,851.90
2018-12-17T06:50:59.902Z,851.95
2018-12-17T06:51:59.877Z,851.92
2018-12-17T06:52:59.862Z,851.94
2018-12-17T06:53:59.888Z,851.97
2018-12-17T06:54:59.870Z,852.01
2018-12-17T06:55:59.839Z,851.97
2018-12-17T06:56:59.820Z,852.03
2018-12-17T06:57:59.807Z,852.00
2018-12-17T06:58:59.829Z,852.02
2018-12-17T06:59:59.836Z,852.04
2018-12-17T07:00:59.811Z,852.09
2018-12-17T07:01:59.782Z,852.11
2018-12-17T07:02:59.763Z,852.13
2018-12-17T07:03:59.755Z,852.15
2018-12-17T07:04:59.740Z,852.12
2018-12-17T07:05:59.776Z,852.14
2018-12-17T07:06:59.725Z,852.17
2018-12-17T07:07:59.703Z,852.20
2018-12-17T07:08:59.686Z,852.23
2018-12-17T07:09:59.700Z,852.26
2018-12-17T07:10:59.702Z,852.21
2018-12-17T07:11:59.699Z,852.25
2018-12-17T07:12:59.654Z,852.26
2018-12-17T07:14:00.234Z,852.30
2018-12-17T07:14:59.633Z,852.33
2018-12-17T07:15:59.684Z,852.36
2018-12-17T07:16:59.616Z,852.41
2018-12-17T07:17:59.609Z,852.46
2018-12-17T07:18:59.592Z,852.46
2018-12-17T07:19:59.573Z,852.49
2018-12-17T07:20:59.571Z,852.51
2018-12-17T07:21:59.601Z,852.53
2018-12-17T07:22:59.546Z,852.55
2018-12-17T07:23:59.550Z,852.59
2018-12-17T07:24:59.531Z,852.58
2018-12-17T07:25:59.517Z,852.59
2018-12-17T07:26:59.502Z,852.67
2018-12-17T07:27:59.544Z,852.63
2018-12-17T07:28:59.482Z,852.60
2018-12-17T07:29:59.479Z,852.65
2018-12-17T07:30:59.486Z,852.63
2018-12-17T07:31:59.475Z,852.69
2018-12-17T07:32:59.452Z,852.71
2018-12-17T07:33:59.474Z,852.72
2018-12-17T07:34:59.442Z,852.76
2018-12-17T07:35:59.400Z,852.79
2018-12-17T07:36:59.450Z,852.84
2018-12-17T07:37:59.412Z,852.81
2018-12-17T07:38:59.376Z,852.82
2018-12-17T07:39:59.380Z,852.84
2018-12-17T07:40:59.371Z,852.87
2018-12-17T07:41:59.383Z,852.87
2018-12-17T07:42:59.373Z,852.91
2018-12-17T07:43:59.317Z,852.91
2018-12-17T07:44:59.321Z,853.00
2018-12-17T07:45:59.350Z,852.99
2018-12-17T07:46:59.296Z,853.00
2018-12-17T07:47:59.293Z,853.00
2018-12-17T07:48:59.302Z,853.02
2018-12-17T07:49:59.261Z,853.05
2018-12-17T07:50:59.262Z,853.01
2018-12-17T07:51:59.291Z,853.06
2018-12-17T07:52:59.243Z,853.12
2018-12-17T07:53:59.226Z,853.10
2018-12-17T07:54:59.217Z,853.16
2018-12-17T07:55:59.211Z,853.16
2018-12-17T07:56:59.192Z,853.15
2018-12-17T07:57:59.243Z,853.16
2018-12-17T07:58:59.230Z,853.19
2018-12-17T07:59:59.159Z,853.22
2018-12-17T08:00:59.146Z,853.28
2018-12-17T08:01:59.196Z,853.25
2018-12-17T08:02:59.137Z,853.30
2018-12-17T08:03:59.127Z,853.29
2018-12-17T08:04:59.159Z,853.32
2018-12-17T08:05:59.101Z,853.31
2018-12-17T08:06:59.095Z,853.35
2018-12-17T08:07:59.093Z,853.34
2018-12-17T08:08:59.063Z,853.39
2018-12-17T08:09:59.054Z,853.43
2018-12-17T08:10:59.086Z,853.42
2018-12-17T08:11:59.050Z,853.44
2018-12-17T08:12:59.021Z,853.44
2018-12-17T08:13:59.016Z,853.48
2018-12-17T08:14:59.009Z,853.44
2018-12-17T08:15:59.013Z,853.49
2018-12-17T08:16:59.020Z,853.47
2018-12-17T08:17:59.010Z,853.48
2018-12-17T08:18:58.971Z,853.51
2018-12-17T08:19:58.953Z,853.55
2018-12-17T08:20:58.947Z,853.62
2018-12-17T08:21:58.931Z,853.69
2018-12-17T08:22:58.933Z,853.65
2018-12-17T08:23:58.950Z,853.62
2018-12-17T08:24:58.927Z,853.59
2018-12-17T08:25:58.902Z,853.61
2018-12-17T08:26:58.881Z,853.69
2018-12-17T08:27:58.888Z,853.67
2018-12-17T08:28:58.908Z,853.67
2018-12-17T08:30:03.836Z,853.66
2018-12-17T08:30:59.835Z,853.73
2018-12-17T08:31:58.839Z,853.71
2018-12-17T08:32:58.815Z,853.70
2018-12-17T08:33:58.832Z,853.69
2018-12-17T08:34:58.846Z,853.73
2018-12-17T08:35:58.794Z,853.74
2018-12-17T08:36:58.775Z,853.75
2018-12-17T08:37:58.775Z,853.79
2018-12-17T08:38:58.766Z,853.83
2018-12-17T08:39:58.745Z,853.90
2018-12-17T08:40:58.789Z,853.86
2018-12-17T08:41:58.754Z,853.87
2018-12-17T08:42:58.712Z,853.91
2018-12-17T08:43:58.709Z,853.86
2018-12-17T08:44:58.710Z,853.89
2018-12-17T08:45:58.701Z,853.91
2018-12-17T08:46:58.704Z,853.92
2018-12-17T08:47:58.663Z,853.97
2018-12-17T08:48:58.661Z,854.02
2018-12-17T08:49:58.703Z,853.98
2018-12-17T08:50:58.629Z,853.97
2018-12-17T08:51:58.627Z,854.03
2018-12-17T08:52:58.623Z,854.02
2018-12-17T08:53:58.600Z,854.10
2018-12-17T08:54:58.594Z,854.09
2018-12-17T08:55:58.628Z,854.13
2018-12-17T08:56:58.565Z,854.11
2018-12-17T08:57:58.560Z,854.11
2018-12-17T08:58:58.557Z,854.17
2018-12-17T08:59:58.530Z,854.20
2018-12-17T09:00:58.541Z,854.24
2018-12-17T09:01:58.579Z,854.25
2018-12-17T09:02:58.522Z,854.31
2018-12-17T09:03:58.489Z,854.36
2018-12-17T09:04:58.488Z,854.37
2018-12-17T09:05:58.474Z,854.36
2018-12-17T09:06:58.481Z,854.38
2018-12-17T09:07:58.496Z,854.40
2018-12-17T09:08:58.448Z,854.41
2018-12-17T09:09:58.446Z,854.43
2018-12-17T09:10:58.442Z,854.47
2018-12-17T09:11:58.406Z,854.51
2018-12-17T09:12:58.443Z,854.54
2018-12-17T09:13:58.382Z,854.54
2018-12-17T09:14:58.384Z,854.53
2018-12-17T09:15:58.379Z,854.53
2018-12-17T09:16:58.382Z,854.53
2018-12-17T09:17:58.385Z,854.47
2018-12-17T09:18:58.320Z,854.50
2018-12-17T09:19:58.333Z,854.51
2018-12-17T09:20:58.335Z,854.55
2018-12-17T09:21:58.306Z,854.51
2018-12-17T09:22:58.401Z,854.60
2018-12-17T09:23:58.274Z,854.56
2018-12-17T09:24:58.298Z,854.61
2018-12-17T09:25:58.267Z,854.66
2018-12-17T09:26:58.247Z,854.63
2018-12-17T09:27:58.323Z,854.63
2018-12-17T09:28:58.230Z,854.63
2018-12-17T09:29:58.229Z,854.72
2018-12-17T09:30:58.225Z,854.73
2018-12-17T09:31:58.205Z,854.70
2018-12-17T09:32:58.188Z,854.75
2018-12-17T09:33:58.221Z,854.74
2018-12-17T09:34:58.154Z,854.74
2018-12-17T09:35:58.149Z,854.78
2018-12-17T09:36:58.133Z,854.80
2018-12-17T09:37:58.140Z,854.77
2018-12-17T09:38:58.117Z,854.70
2018-12-17T09:39:58.191Z,854.71
2018-12-17T09:40:58.097Z,854.70
2018-12-17T09:41:58.108Z,854.73
2018-12-17T09:42:58.096Z,854.69
2018-12-17T09:43:58.064Z,854.67
2018-12-17T09:44:59.148Z,854.68
2018-12-17T09:45:58.034Z,854.69
2018-12-17T09:46:58.036Z,854.68
2018-12-17T09:47:58.032Z,854.74
2018-12-17T09:48:58.037Z,854.77
2018-12-17T09:49:58.000Z,854.76
2018-12-17T09:50:58.062Z,854.80
2018-12-17T09:51:57.989Z,854.75
2018-12-17T09:52:57.957Z,854.79
2018-12-17T09:53:57.974Z,854.80
2018-12-17T09:54:57.943Z,854.80
2018-12-17T09:55:57.939Z,854.84
2018-12-17T09:56:57.957Z,854.77
2018-12-17T09:57:58.121Z,854.83
2018-12-17T09:58:58.119Z,854.76
2018-12-17T09:59:57.911Z,854.75
2018-12-17T10:00:57.866Z,854.70
2018-12-17T10:01:57.869Z,854.75
2018-12-17T10:02:57.899Z,854.75
2018-12-17T10:03:57.859Z,854.79
2018-12-17T10:04:57.852Z,854.79
2018-12-17T10:05:57.856Z,854.84
2018-12-17T10:06:57.818Z,854.83
2018-12-17T10:07:57.813Z,854.80
2018-12-17T10:08:57.860Z,854.84
2018-12-17T10:09:57.774Z,854.83
2018-12-17T10:10:57.794Z,854.87
2018-12-17T10:11:57.767Z,854.96
2018-12-17T10:12:57.779Z,854.86
2018-12-17T10:13:57.748Z,854.86
2018-12-17T10:14:57.798Z,854.94
2018-12-17T10:15:57.728Z,854.87
2018-12-17T10:16:57.715Z,854.92
2018-12-17T10:17:57.711Z,854.92
2018-12-17T10:18:57.673Z,854.88
2018-12-17T10:19:57.726Z,854.95
2018-12-17T10:20:57.678Z,854.93
2018-12-17T10:21:57.645Z,854.91
2018-12-17T10:22:57.632Z,854.88
2018-12-17T10:23:57.662Z,854.91
2018-12-17T10:24:57.627Z,854.97
2018-12-17T10:25:57.642Z,854.96
2018-12-17T10:26:57.608Z,854.97
2018-12-17T10:27:57.616Z,854.92
2018-12-17T10:28:57.605Z,854.93
2018-12-17T10:29:57.630Z,854.94
2018-12-17T10:30:57.608Z,854.93
2018-12-17T10:31:57.567Z,854.84
2018-12-17T10:32:57.535Z,854.90
2018-12-17T10:33:57.533Z,854.90
2018-12-17T10:34:57.549Z,854.93
2018-12-17T10:35:57.545Z,854.93
2018-12-17T10:36:57.529Z,854.89
2018-12-17T10:37:57.473Z,854.84
2018-12-17T10:38:57.476Z,854.85
2018-12-17T10:39:57.494Z,854.88
2018-12-17T10:40:57.449Z,854.90
2018-12-17T10:41:57.502Z,854.90
2018-12-17T10:42:57.567Z,854.91
2018-12-17T10:43:57.410Z,854.90
2018-12-17T10:44:57.435Z,854.90
2018-12-17T10:45:57.454Z,854.91
2018-12-17T10:46:57.956Z,854.92
2018-12-17T10:47:57.399Z,854.93
2018-12-17T10:48:57.382Z,854.95
2018-12-17T10:49:57.379Z,854.91
2018-12-17T10:50:57.348Z,854.93
2018-12-17T10:51:57.413Z,854.96
2018-12-17T10:52:57.337Z,854.97
2018-12-17T10:53:57.328Z,854.97
2018-12-17T10:54:57.311Z,854.95
2018-12-17T10:55:57.322Z,854.97
2018-12-17T10:56:57.320Z,854.96
2018-12-17T10:57:57.345Z,854.93
2018-12-17T10:58:57.292Z,854.92
2018-12-17T10:59:57.282Z,854.92
2018-12-17T11:00:57.262Z,854.92
2018-12-17T11:01:57.232Z,855.01
2018-12-17T11:02:57.390Z,854.98
2018-12-17T11:03:57.253Z,854.91
2018-12-17T11:04:57.244Z,854.99
2018-12-17T11:05:57.193Z,854.92
2018-12-17T11:06:57.191Z,854.96
2018-12-17T11:07:57.218Z,854.98
2018-12-17T11:08:57.170Z,855.02
2018-12-17T11:09:57.169Z,855.00
2018-12-17T11:10:57.151Z,855.05
2018-12-17T11:11:57.149Z,855.07
2018-12-17T11:12:57.106Z,855.10
2018-12-17T11:13:57.172Z,855.11
2018-12-17T11:14:57.108Z,855.15
2018-12-17T11:15:57.885Z,855.09
2018-12-17T11:16:57.096Z,855.12
2018-12-17T11:17:57.099Z,855.04
2018-12-17T11:18:57.080Z,855.05
2018-12-17T11:19:57.083Z,855.05
2018-12-17T11:20:57.045Z,855.04
2018-12-17T11:21:57.025Z,855.01
2018-12-17T11:22:57.014Z,855.00
2018-12-17T11:23:57.155Z,855.01
2018-12-17T11:24:57.039Z,855.03
2018-12-17T11:25:57.001Z,855.09
2018-12-17T11:26:56.991Z,855.06
2018-12-17T11:27:56.964Z,855.06
2018-12-17T11:28:57.441Z,855.03
2018-12-17T11:29:56.956Z,855.07
2018-12-17T11:30:56.996Z,855.09
2018-12-17T11:31:56.935Z,855.11
2018-12-17T11:32:56.936Z,855.14
2018-12-17T11:33:56.899Z,855.09
2018-12-17T11:34:56.899Z,855.14
2018-12-17T11:35:56.883Z,855.14
2018-12-17T11:36:56.905Z,855.13
2018-12-17T11:37:56.842Z,855.11
2018-12-17T11:38:56.842Z,855.17
2018-12-17T11:39:56.819Z,855.19
2018-12-17T11:40:56.803Z,855.15
2018-12-17T11:41:57.067Z,855.16
2018-12-17T11:42:56.786Z,855.19
2018-12-17T11:43:56.811Z,855.21
2018-12-17T11:44:56.789Z,855.18
2018-12-17T11:45:56.775Z,855.20
2018-12-17T11:46:56.792Z,855.22
2018-12-17T11:47:56.798Z,855.18
2018-12-17T11:48:56.736Z,855.22
2018-12-17T11:49:57.611Z,855.20
2018-12-17T11:50:56.719Z,855.17
2018-12-17T11:51:56.708Z,855.15
2018-12-17T11:52:56.689Z,855.16
2018-12-17T11:53:56.730Z,855.19
2018-12-17T11:54:56.664Z,855.23
2018-12-17T11:55:57.428Z,855.28
2018-12-17T11:57:22.135Z,855.30
2018-12-17T11:57:57.639Z,855.32
2018-12-17T11:58:56.608Z,855.35
2018-12-17T11:59:56.658Z,855.31
2018-12-17T12:00:56.642Z,855.32
2018-12-17T12:01:56.593Z,855.39
2018-12-17T12:02:59.187Z,855.30
2018-12-17T12:03:56.564Z,855.30
2018-12-17T12:04:56.573Z,855.33
2018-12-17T12:05:56.577Z,855.37
2018-12-17T12:06:56.541Z,855.32
2018-12-17T12:07:56.541Z,855.34
2018-12-17T12:08:56.510Z,855.40
2018-12-17T12:09:56.517Z,855.39
2018-12-17T12:10:56.515Z,855.41
2018-12-17T12:11:56.522Z,855.37
2018-12-17T12:12:56.481Z,855.36
2018-12-17T12:13:56.459Z,855.37
2018-12-17T12:14:56.452Z,855.42
2018-12-17T12:15:56.445Z,855.43
2018-12-17T12:16:56.492Z,855.49
2018-12-17T12:17:56.419Z,855.50
2018-12-17T12:18:56.424Z,855.47
2018-12-17T12:19:56.414Z,855.49
2018-12-17T12:20:56.385Z,855.45
2018-12-17T12:21:56.389Z,855.50
2018-12-17T12:22:56.468Z,855.53
2018-12-17T12:23:56.403Z,855.52
2018-12-17T12:24:56.348Z,855.48
2018-12-17T12:25:56.543Z,855.47
2018-12-17T12:26:56.326Z,855.48
2018-12-17T12:27:56.293Z,855.55